sensor_id;sensor_type;location;lat;lon;timestamp;P1;durP1;ratioP1;P2;durP2;ratioP2
23410;SDS011;11878;51.774;7.220;2023-02-19T00:02:26;25.67;;;13.20;;
23410;SDS011;11878;51.774;7.220;2023-02-19T00:05:28;30.00;;;13.73;;
23410;SDS011;11878;51.774;7.220;2023-02-19T00:08:30;26.73;;;13.47;;
23410;SDS011;11878;51.774;7.220;2023-02-19T00:11:33;37.57;;;15.13;;
23410;SDS011;11878;51.774;7.220;2023-02-19T00:14:36;32.67;;;14.43;;
23410;SDS011;11878;51.774;7.220;2023-02-19T00:17:38;29.97;;;14.67;;
23410;SDS011;11878;51.774;7.220;2023-02-19T00:20:39;32.83;;;13.47;;
23410;SDS011;11878;51.774;7.220;2023-02-19T00:23:41;29.27;;;14.37;;
23410;SDS011;11878;51.774;7.220;2023-02-19T00:26:43;34.63;;;15.67;;
23410;SDS011;11878;51.774;7.220;2023-02-19T00:29:46;31.77;;;14.50;;
23410;SDS011;11878;51.774;7.220;2023-02-19T00:32:51;34.57;;;14.13;;
23410;SDS011;11878;51.774;7.220;2023-02-19T00:35:52;34.03;;;13.53;;
23410;SDS011;11878;51.774;7.220;2023-02-19T00:38:54;31.80;;;14.67;;
23410;SDS011;11878;51.774;7.220;2023-02-19T00:41:56;35.30;;;15.13;;
23410;SDS011;11878;51.774;7.220;2023-02-19T00:45:01;32.87;;;14.73;;
23410;SDS011;11878;51.774;7.220;2023-02-19T00:48:02;28.20;;;14.63;;
23410;SDS011;11878;51.774;7.220;2023-02-19T00:51:04;33.33;;;15.13;;
23410;SDS011;11878;51.774;7.220;2023-02-19T00:54:06;38.63;;;15.83;;
23410;SDS011;11878;51.774;7.220;2023-02-19T00:57:08;33.43;;;13.97;;
23410;SDS011;11878;51.774;7.220;2023-02-19T01:00:10;32.83;;;14.90;;
23410;SDS011;11878;51.774;7.220;2023-02-19T01:03:13;34.50;;;15.47;;
23410;SDS011;11878;51.774;7.220;2023-02-19T01:06:16;30.67;;;13.83;;
23410;SDS011;11878;51.774;7.220;2023-02-19T01:09:19;30.43;;;14.10;;
23410;SDS011;11878;51.774;7.220;2023-02-19T01:12:21;25.70;;;12.83;;
23410;SDS011;11878;51.774;7.220;2023-02-19T01:15:24;26.67;;;12.53;;
23410;SDS011;11878;51.774;7.220;2023-02-19T01:18:26;34.60;;;14.37;;
23410;SDS011;11878;51.774;7.220;2023-02-19T01:21:28;33.53;;;13.73;;
23410;SDS011;11878;51.774;7.220;2023-02-19T01:24:30;28.53;;;13.73;;
23410;SDS011;11878;51.774;7.220;2023-02-19T01:27:32;31.03;;;13.13;;
23410;SDS011;11878;51.774;7.220;2023-02-19T01:30:34;28.50;;;12.93;;
23410;SDS011;11878;51.774;7.220;2023-02-19T01:33:37;32.43;;;15.23;;
23410;SDS011;11878;51.774;7.220;2023-02-19T01:36:39;30.17;;;14.37;;
23410;SDS011;11878;51.774;7.220;2023-02-19T01:39:41;34.87;;;13.63;;
23410;SDS011;11878;51.774;7.220;2023-02-19T01:42:43;38.10;;;14.10;;
23410;SDS011;11878;51.774;7.220;2023-02-19T01:45:45;27.27;;;12.37;;
23410;SDS011;11878;51.774;7.220;2023-02-19T01:48:47;23.27;;;11.03;;
23410;SDS011;11878;51.774;7.220;2023-02-19T01:51:53;23.97;;;11.77;;
23410;SDS011;11878;51.774;7.220;2023-02-19T01:55:02;24.87;;;11.10;;
23410;SDS011;11878;51.774;7.220;2023-02-19T01:58:07;21.33;;;10.87;;
23410;SDS011;11878;51.774;7.220;2023-02-19T02:01:11;26.03;;;10.70;;
23410;SDS011;11878;51.774;7.220;2023-02-19T02:04:14;21.03;;;9.43;;
23410;SDS011;11878;51.774;7.220;2023-02-19T02:07:17;19.10;;;9.10;;
23410;SDS011;11878;51.774;7.220;2023-02-19T02:10:37;27.97;;;10.37;;
23410;SDS011;11878;51.774;7.220;2023-02-19T02:13:39;24.20;;;9.93;;
23410;SDS011;11878;51.774;7.220;2023-02-19T02:23:39;26.93;;;9.60;;
23410;SDS011;11878;51.774;7.220;2023-02-19T02:33:19;24.30;;;9.23;;
23410;SDS011;11878;51.774;7.220;2023-02-19T02:36:34;21.70;;;9.00;;
23410;SDS011;11878;51.774;7.220;2023-02-19T02:39:39;19.10;;;8.07;;
23410;SDS011;11878;51.774;7.220;2023-02-19T02:42:42;18.73;;;7.77;;
23410;SDS011;11878;51.774;7.220;2023-02-19T02:45:46;12.20;;;6.53;;
23410;SDS011;11878;51.774;7.220;2023-02-19T02:49:01;16.87;;;6.20;;
23410;SDS011;11878;51.774;7.220;2023-02-19T02:52:09;13.77;;;6.93;;
23410;SDS011;11878;51.774;7.220;2023-02-19T02:55:33;11.80;;;5.93;;
23410;SDS011;11878;51.774;7.220;2023-02-19T02:58:38;10.03;;;5.43;;
23410;SDS011;11878;51.774;7.220;2023-02-19T03:05:16;23.60;;;8.43;;
23410;SDS011;11878;51.774;7.220;2023-02-19T03:08:44;24.90;;;11.17;;
23410;SDS011;11878;51.774;7.220;2023-02-19T03:11:56;30.80;;;10.80;;
23410;SDS011;11878;51.774;7.220;2023-02-19T03:15:21;28.60;;;11.90;;
23410;SDS011;11878;51.774;7.220;2023-02-19T03:18:48;43.53;;;13.20;;
23410;SDS011;11878;51.774;7.220;2023-02-19T03:22:14;28.87;;;12.97;;
23410;SDS011;11878;51.774;7.220;2023-02-19T03:25:24;29.73;;;13.47;;
23410;SDS011;11878;51.774;7.220;2023-02-19T03:28:55;38.67;;;14.47;;
23410;SDS011;11878;51.774;7.220;2023-02-19T03:32:28;34.67;;;13.43;;
23410;SDS011;11878;51.774;7.220;2023-02-19T03:35:41;32.80;;;13.83;;
23410;SDS011;11878;51.774;7.220;2023-02-19T03:38:58;28.53;;;12.40;;
23410;SDS011;11878;51.774;7.220;2023-02-19T03:42:17;29.60;;;13.17;;
23410;SDS011;11878;51.774;7.220;2023-02-19T03:45:42;28.17;;;13.00;;
23410;SDS011;11878;51.774;7.220;2023-02-19T03:49:09;32.50;;;13.23;;
23410;SDS011;11878;51.774;7.220;2023-02-19T03:55:48;28.50;;;12.77;;
23410;SDS011;11878;51.774;7.220;2023-02-19T03:59:19;34.70;;;13.90;;
23410;SDS011;11878;51.774;7.220;2023-02-19T04:03:02;37.07;;;14.27;;
23410;SDS011;11878;51.774;7.220;2023-02-19T04:06:12;29.87;;;13.67;;
23410;SDS011;11878;51.774;7.220;2023-02-19T04:09:18;36.33;;;14.47;;
23410;SDS011;11878;51.774;7.220;2023-02-19T04:12:29;39.43;;;16.03;;
23410;SDS011;11878;51.774;7.220;2023-02-19T04:15:31;21.70;;;12.53;;
23410;SDS011;11878;51.774;7.220;2023-02-19T04:18:38;25.87;;;10.17;;
23410;SDS011;11878;51.774;7.220;2023-02-19T04:21:44;24.90;;;10.40;;
23410;SDS011;11878;51.774;7.220;2023-02-19T04:24:48;22.30;;;10.67;;
23410;SDS011;11878;51.774;7.220;2023-02-19T04:27:52;31.73;;;12.37;;
23410;SDS011;11878;51.774;7.220;2023-02-19T04:30:54;24.43;;;12.20;;
23410;SDS011;11878;51.774;7.220;2023-02-19T04:33:56;21.57;;;10.73;;
23410;SDS011;11878;51.774;7.220;2023-02-19T04:36:58;25.93;;;12.00;;
23410;SDS011;11878;51.774;7.220;2023-02-19T04:40:00;33.87;;;11.37;;
23410;SDS011;11878;51.774;7.220;2023-02-19T04:43:01;33.00;;;11.83;;
23410;SDS011;11878;51.774;7.220;2023-02-19T04:46:03;26.60;;;9.83;;
23410;SDS011;11878;51.774;7.220;2023-02-19T04:49:05;19.80;;;9.83;;
23410;SDS011;11878;51.774;7.220;2023-02-19T04:52:07;36.43;;;9.50;;
23410;SDS011;11878;51.774;7.220;2023-02-19T04:55:09;27.10;;;9.93;;
23410;SDS011;11878;51.774;7.220;2023-02-19T04:58:11;20.67;;;9.13;;
23410;SDS011;11878;51.774;7.220;2023-02-19T05:01:13;19.83;;;8.57;;
23410;SDS011;11878;51.774;7.220;2023-02-19T05:04:15;22.90;;;9.83;;
23410;SDS011;11878;51.774;7.220;2023-02-19T05:07:17;18.57;;;10.13;;
23410;SDS011;11878;51.774;7.220;2023-02-19T05:10:19;21.80;;;9.87;;
23410;SDS011;11878;51.774;7.220;2023-02-19T05:13:20;18.57;;;9.37;;
23410;SDS011;11878;51.774;7.220;2023-02-19T05:23:19;14.03;;;7.97;;
23410;SDS011;11878;51.774;7.220;2023-02-19T05:26:24;18.20;;;9.03;;
23410;SDS011;11878;51.774;7.220;2023-02-19T05:29:27;22.83;;;7.07;;
23410;SDS011;11878;51.774;7.220;2023-02-19T05:32:31;22.87;;;8.00;;
23410;SDS011;11878;51.774;7.220;2023-02-19T05:35:39;19.20;;;7.93;;
23410;SDS011;11878;51.774;7.220;2023-02-19T05:38:45;16.77;;;8.40;;
23410;SDS011;11878;51.774;7.220;2023-02-19T05:42:11;17.47;;;8.50;;
23410;SDS011;11878;51.774;7.220;2023-02-19T05:45:14;16.93;;;8.47;;
23410;SDS011;11878;51.774;7.220;2023-02-19T05:48:15;13.33;;;8.10;;
23410;SDS011;11878;51.774;7.220;2023-02-19T05:51:19;13.50;;;7.27;;
23410;SDS011;11878;51.774;7.220;2023-02-19T05:54:22;13.47;;;6.90;;
23410;SDS011;11878;51.774;7.220;2023-02-19T05:57:28;13.43;;;7.70;;
23410;SDS011;11878;51.774;7.220;2023-02-19T06:00:31;21.30;;;7.33;;
23410;SDS011;11878;51.774;7.220;2023-02-19T06:03:34;16.47;;;7.70;;
23410;SDS011;11878;51.774;7.220;2023-02-19T06:06:37;14.20;;;6.83;;
23410;SDS011;11878;51.774;7.220;2023-02-19T06:09:40;12.93;;;8.17;;
23410;SDS011;11878;51.774;7.220;2023-02-19T06:12:42;17.27;;;7.17;;
23410;SDS011;11878;51.774;7.220;2023-02-19T06:15:53;23.73;;;7.97;;
23410;SDS011;11878;51.774;7.220;2023-02-19T06:18:58;15.73;;;8.03;;
23410;SDS011;11878;51.774;7.220;2023-02-19T06:22:06;21.47;;;8.00;;
23410;SDS011;11878;51.774;7.220;2023-02-19T06:25:11;15.70;;;7.30;;
23410;SDS011;11878;51.774;7.220;2023-02-19T06:28:15;15.33;;;7.63;;
23410;SDS011;11878;51.774;7.220;2023-02-19T06:31:19;11.27;;;6.27;;
23410;SDS011;11878;51.774;7.220;2023-02-19T06:34:22;14.67;;;7.10;;
23410;SDS011;11878;51.774;7.220;2023-02-19T06:37:27;13.20;;;6.03;;
23410;SDS011;11878;51.774;7.220;2023-02-19T06:40:30;16.77;;;7.33;;
23410;SDS011;11878;51.774;7.220;2023-02-19T06:43:35;13.80;;;6.87;;
23410;SDS011;11878;51.774;7.220;2023-02-19T06:46:37;18.10;;;6.80;;
23410;SDS011;11878;51.774;7.220;2023-02-19T06:49:40;14.83;;;6.77;;
23410;SDS011;11878;51.774;7.220;2023-02-19T06:52:45;9.43;;;6.40;;
23410;SDS011;11878;51.774;7.220;2023-02-19T06:55:57;11.30;;;5.50;;
23410;SDS011;11878;51.774;7.220;2023-02-19T06:59:05;10.17;;;5.27;;
23410;SDS011;11878;51.774;7.220;2023-02-19T07:02:10;10.60;;;5.43;;
23410;SDS011;11878;51.774;7.220;2023-02-19T07:05:15;11.13;;;5.90;;
23410;SDS011;11878;51.774;7.220;2023-02-19T07:08:18;13.33;;;6.50;;
23410;SDS011;11878;51.774;7.220;2023-02-19T07:11:20;23.23;;;10.17;;
23410;SDS011;11878;51.774;7.220;2023-02-19T07:14:28;12.37;;;6.73;;
23410;SDS011;11878;51.774;7.220;2023-02-19T07:17:33;12.37;;;6.30;;
23410;SDS011;11878;51.774;7.220;2023-02-19T07:20:38;15.07;;;6.87;;
23410;SDS011;11878;51.774;7.220;2023-02-19T07:23:41;12.80;;;6.00;;
23410;SDS011;11878;51.774;7.220;2023-02-19T07:26:44;8.87;;;5.90;;
23410;SDS011;11878;51.774;7.220;2023-02-19T07:29:46;9.10;;;5.70;;
23410;SDS011;11878;51.774;7.220;2023-02-19T07:32:49;8.03;;;5.17;;
23410;SDS011;11878;51.774;7.220;2023-02-19T07:35:55;13.47;;;5.60;;
23410;SDS011;11878;51.774;7.220;2023-02-19T07:38:57;12.60;;;6.77;;
23410;SDS011;11878;51.774;7.220;2023-02-19T07:42:00;13.57;;;5.90;;
23410;SDS011;11878;51.774;7.220;2023-02-19T07:45:08;8.83;;;5.10;;
23410;SDS011;11878;51.774;7.220;2023-02-19T07:48:19;10.27;;;5.23;;
23410;SDS011;11878;51.774;7.220;2023-02-19T07:51:29;7.30;;;4.50;;
23410;SDS011;11878;51.774;7.220;2023-02-19T07:54:42;14.40;;;5.57;;
23410;SDS011;11878;51.774;7.220;2023-02-19T07:57:49;9.77;;;6.00;;
23410;SDS011;11878;51.774;7.220;2023-02-19T08:01:29;7.77;;;4.20;;
23410;SDS011;11878;51.774;7.220;2023-02-19T08:05:30;11.33;;;5.20;;
23410;SDS011;11878;51.774;7.220;2023-02-19T08:09:33;12.63;;;5.33;;
23410;SDS011;11878;51.774;7.220;2023-02-19T08:12:53;10.53;;;5.43;;
23410;SDS011;11878;51.774;7.220;2023-02-19T08:16:16;9.63;;;6.20;;
23410;SDS011;11878;51.774;7.220;2023-02-19T08:19:43;8.80;;;4.67;;
23410;SDS011;11878;51.774;7.220;2023-02-19T08:22:58;7.47;;;4.53;;
23410;SDS011;11878;51.774;7.220;2023-02-19T08:26:10;10.70;;;5.10;;
23410;SDS011;11878;51.774;7.220;2023-02-19T08:29:22;12.73;;;4.70;;
23410;SDS011;11878;51.774;7.220;2023-02-19T08:32:37;9.90;;;6.00;;
23410;SDS011;11878;51.774;7.220;2023-02-19T08:35:50;8.20;;;4.73;;
23410;SDS011;11878;51.774;7.220;2023-02-19T08:38:56;7.63;;;4.60;;
23410;SDS011;11878;51.774;7.220;2023-02-19T08:42:24;6.37;;;3.30;;
23410;SDS011;11878;51.774;7.220;2023-02-19T08:45:30;6.27;;;3.63;;
23410;SDS011;11878;51.774;7.220;2023-02-19T08:49:00;9.87;;;3.90;;
23410;SDS011;11878;51.774;7.220;2023-02-19T08:52:05;8.17;;;3.10;;
23410;SDS011;11878;51.774;7.220;2023-02-19T08:55:07;6.77;;;3.60;;
23410;SDS011;11878;51.774;7.220;2023-02-19T08:58:19;6.70;;;2.93;;
23410;SDS011;11878;51.774;7.220;2023-02-19T09:01:30;7.93;;;3.37;;
23410;SDS011;11878;51.774;7.220;2023-02-19T09:04:54;4.73;;;2.70;;
23410;SDS011;11878;51.774;7.220;2023-02-19T09:08:06;8.07;;;3.23;;
23410;SDS011;11878;51.774;7.220;2023-02-19T09:11:09;6.77;;;2.90;;
23410;SDS011;11878;51.774;7.220;2023-02-19T09:14:16;4.30;;;2.53;;
23410;SDS011;11878;51.774;7.220;2023-02-19T09:17:21;10.13;;;4.83;;
23410;SDS011;11878;51.774;7.220;2023-02-19T09:20:27;5.77;;;3.43;;
23410;SDS011;11878;51.774;7.220;2023-02-19T09:23:34;9.73;;;3.50;;
23410;SDS011;11878;51.774;7.220;2023-02-19T09:26:39;6.27;;;3.43;;
23410;SDS011;11878;51.774;7.220;2023-02-19T09:29:42;9.33;;;4.17;;
23410;SDS011;11878;51.774;7.220;2023-02-19T09:32:47;6.63;;;3.83;;
23410;SDS011;11878;51.774;7.220;2023-02-19T09:35:58;15.70;;;7.23;;
23410;SDS011;11878;51.774;7.220;2023-02-19T09:39:11;5.70;;;3.37;;
23410;SDS011;11878;51.774;7.220;2023-02-19T09:42:21;6.63;;;3.90;;
23410;SDS011;11878;51.774;7.220;2023-02-19T09:45:49;11.47;;;6.43;;
23410;SDS011;11878;51.774;7.220;2023-02-19T09:52:32;5.77;;;2.90;;
23410;SDS011;11878;51.774;7.220;2023-02-19T09:55:46;11.03;;;6.37;;
23410;SDS011;11878;51.774;7.220;2023-02-19T09:58:50;7.90;;;4.87;;
23410;SDS011;11878;51.774;7.220;2023-02-19T10:02:02;8.10;;;3.13;;
23410;SDS011;11878;51.774;7.220;2023-02-19T10:05:16;6.23;;;1.73;;
23410;SDS011;11878;51.774;7.220;2023-02-19T10:08:23;1.23;;;0.70;;
23410;SDS011;11878;51.774;7.220;2023-02-19T10:11:29;0.90;;;0.70;;
23410;SDS011;11878;51.774;7.220;2023-02-19T10:14:35;3.00;;;0.70;;
23410;SDS011;11878;51.774;7.220;2023-02-19T10:17:46;1.10;;;0.80;;
23410;SDS011;11878;51.774;7.220;2023-02-19T10:21:03;1.70;;;0.80;;
23410;SDS011;11878;51.774;7.220;2023-02-19T10:24:40;1.17;;;0.77;;
23410;SDS011;11878;51.774;7.220;2023-02-19T10:27:47;1.80;;;0.90;;
23410;SDS011;11878;51.774;7.220;2023-02-19T10:30:51;1.93;;;1.00;;
23410;SDS011;11878;51.774;7.220;2023-02-19T10:33:59;2.27;;;1.23;;
23410;SDS011;11878;51.774;7.220;2023-02-19T10:37:09;2.77;;;1.53;;
23410;SDS011;11878;51.774;7.220;2023-02-19T10:40:22;1.90;;;0.97;;
23410;SDS011;11878;51.774;7.220;2023-02-19T10:43:34;2.10;;;1.47;;
23410;SDS011;11878;51.774;7.220;2023-02-19T10:46:47;3.50;;;1.37;;
23410;SDS011;11878;51.774;7.220;2023-02-19T10:50:02;3.57;;;1.10;;
23410;SDS011;11878;51.774;7.220;2023-02-19T10:53:23;1.77;;;1.00;;
23410;SDS011;11878;51.774;7.220;2023-02-19T10:56:48;1.80;;;0.97;;
23410;SDS011;11878;51.774;7.220;2023-02-19T11:00:16;2.07;;;1.20;;
23410;SDS011;11878;51.774;7.220;2023-02-19T11:03:30;1.70;;;0.93;;
23410;SDS011;11878;51.774;7.220;2023-02-19T11:06:40;2.93;;;1.20;;
23410;SDS011;11878;51.774;7.220;2023-02-19T11:09:48;2.80;;;1.60;;
23410;SDS011;11878;51.774;7.220;2023-02-19T11:12:58;3.73;;;1.80;;
23410;SDS011;11878;51.774;7.220;2023-02-19T11:16:05;2.13;;;1.40;;
23410;SDS011;11878;51.774;7.220;2023-02-19T11:22:57;2.83;;;1.00;;
23410;SDS011;11878;51.774;7.220;2023-02-19T11:26:18;2.47;;;1.10;;
23410;SDS011;11878;51.774;7.220;2023-02-19T11:29:23;2.77;;;1.40;;
23410;SDS011;11878;51.774;7.220;2023-02-19T11:32:35;2.37;;;1.43;;
23410;SDS011;11878;51.774;7.220;2023-02-19T11:35:39;2.73;;;0.90;;
23410;SDS011;11878;51.774;7.220;2023-02-19T11:38:44;2.60;;;1.40;;
23410;SDS011;11878;51.774;7.220;2023-02-19T11:45:37;3.87;;;1.47;;
23410;SDS011;11878;51.774;7.220;2023-02-19T11:52:32;2.33;;;1.30;;
23410;SDS011;11878;51.774;7.220;2023-02-19T12:02:45;3.53;;;1.60;;
23410;SDS011;11878;51.774;7.220;2023-02-19T12:06:07;2.43;;;1.40;;
23410;SDS011;11878;51.774;7.220;2023-02-19T12:09:47;2.50;;;1.23;;
23410;SDS011;11878;51.774;7.220;2023-02-19T12:23:36;1.90;;;1.13;;
23410;SDS011;11878;51.774;7.220;2023-02-19T12:27:03;1.60;;;1.00;;
23410;SDS011;11878;51.774;7.220;2023-02-19T12:33:44;1.63;;;0.80;;
23410;SDS011;11878;51.774;7.220;2023-02-19T12:44:57;1.40;;;0.83;;
23410;SDS011;11878;51.774;7.220;2023-02-19T12:48:27;3.70;;;0.87;;
23410;SDS011;11878;51.774;7.220;2023-02-19T12:51:46;4.13;;;0.80;;
23410;SDS011;11878;51.774;7.220;2023-02-19T12:54:51;2.43;;;1.20;;
23410;SDS011;11878;51.774;7.220;2023-02-19T12:57:56;2.07;;;1.03;;
23410;SDS011;11878;51.774;7.220;2023-02-19T13:01:02;2.23;;;1.07;;
23410;SDS011;11878;51.774;7.220;2023-02-19T13:04:21;3.00;;;1.00;;
23410;SDS011;11878;51.774;7.220;2023-02-19T13:07:44;1.27;;;0.70;;
23410;SDS011;11878;51.774;7.220;2023-02-19T13:11:00;5.53;;;1.20;;
23410;SDS011;11878;51.774;7.220;2023-02-19T13:17:39;2.67;;;1.50;;
23410;SDS011;11878;51.774;7.220;2023-02-19T13:20:48;2.47;;;1.30;;
23410;SDS011;11878;51.774;7.220;2023-02-19T13:23:52;1.67;;;1.13;;
23410;SDS011;11878;51.774;7.220;2023-02-19T13:30:11;2.80;;;1.83;;
23410;SDS011;11878;51.774;7.220;2023-02-19T13:36:58;3.03;;;1.70;;
23410;SDS011;11878;51.774;7.220;2023-02-19T13:40:36;2.80;;;1.63;;
23410;SDS011;11878;51.774;7.220;2023-02-19T13:43:37;3.80;;;2.13;;
23410;SDS011;11878;51.774;7.220;2023-02-19T13:46:43;2.90;;;1.50;;
23410;SDS011;11878;51.774;7.220;2023-02-19T13:49:49;2.70;;;1.57;;
23410;SDS011;11878;51.774;7.220;2023-02-19T13:52:53;2.40;;;1.60;;
23410;SDS011;11878;51.774;7.220;2023-02-19T13:55:56;2.73;;;1.43;;
23410;SDS011;11878;51.774;7.220;2023-02-19T13:58:59;4.00;;;2.53;;
23410;SDS011;11878;51.774;7.220;2023-02-19T14:05:56;2.57;;;1.37;;
23410;SDS011;11878;51.774;7.220;2023-02-19T14:08:59;3.73;;;2.00;;
23410;SDS011;11878;51.774;7.220;2023-02-19T14:18:44;3.13;;;1.80;;
23410;SDS011;11878;51.774;7.220;2023-02-19T14:21:47;2.57;;;1.70;;
23410;SDS011;11878;51.774;7.220;2023-02-19T14:24:48;5.67;;;2.73;;
23410;SDS011;11878;51.774;7.220;2023-02-19T14:28:41;6.13;;;3.13;;
23410;SDS011;11878;51.774;7.220;2023-02-19T14:31:31;2.53;;;1.53;;
23410;SDS011;11878;51.774;7.220;2023-02-19T14:34:38;2.67;;;1.80;;
23410;SDS011;11878;51.774;7.220;2023-02-19T14:37:39;16.53;;;7.27;;
23410;SDS011;11878;51.774;7.220;2023-02-19T14:40:44;31.27;;;12.77;;
23410;SDS011;11878;51.774;7.220;2023-02-19T14:43:48;6.07;;;3.03;;
23410;SDS011;11878;51.774;7.220;2023-02-19T14:46:55;4.67;;;2.90;;
23410;SDS011;11878;51.774;7.220;2023-02-19T14:50:06;4.93;;;2.70;;
23410;SDS011;11878;51.774;7.220;2023-02-19T14:53:14;4.13;;;2.33;;
23410;SDS011;11878;51.774;7.220;2023-02-19T14:56:27;4.50;;;2.27;;
23410;SDS011;11878;51.774;7.220;2023-02-19T14:59:34;13.23;;;4.60;;
23410;SDS011;11878;51.774;7.220;2023-02-19T15:02:40;7.50;;;4.00;;
23410;SDS011;11878;51.774;7.220;2023-02-19T15:05:43;5.50;;;3.10;;
23410;SDS011;11878;51.774;7.220;2023-02-19T15:08:46;5.83;;;2.13;;
23410;SDS011;11878;51.774;7.220;2023-02-19T15:11:50;6.77;;;3.77;;
23410;SDS011;11878;51.774;7.220;2023-02-19T15:14:54;4.03;;;2.40;;
23410;SDS011;11878;51.774;7.220;2023-02-19T15:18:00;4.47;;;2.10;;
23410;SDS011;11878;51.774;7.220;2023-02-19T15:21:03;3.57;;;2.40;;
23410;SDS011;11878;51.774;7.220;2023-02-19T15:24:07;3.23;;;1.90;;
23410;SDS011;11878;51.774;7.220;2023-02-19T15:27:16;3.57;;;2.03;;
23410;SDS011;11878;51.774;7.220;2023-02-19T15:30:27;4.07;;;2.10;;
23410;SDS011;11878;51.774;7.220;2023-02-19T15:33:29;10.17;;;5.20;;
23410;SDS011;11878;51.774;7.220;2023-02-19T15:36:32;4.63;;;2.63;;
23410;SDS011;11878;51.774;7.220;2023-02-19T15:39:44;6.20;;;2.37;;
23410;SDS011;11878;51.774;7.220;2023-02-19T15:42:48;6.07;;;3.50;;
23410;SDS011;11878;51.774;7.220;2023-02-19T15:45:51;10.70;;;7.13;;
23410;SDS011;11878;51.774;7.220;2023-02-19T15:49:19;7.37;;;3.43;;
23410;SDS011;11878;51.774;7.220;2023-02-19T15:52:37;10.03;;;5.00;;
23410;SDS011;11878;51.774;7.220;2023-02-19T15:56:13;9.27;;;4.80;;
23410;SDS011;11878;51.774;7.220;2023-02-19T15:59:26;4.83;;;2.80;;
23410;SDS011;11878;51.774;7.220;2023-02-19T16:02:38;7.23;;;3.50;;
23410;SDS011;11878;51.774;7.220;2023-02-19T16:05:40;9.33;;;3.20;;
23410;SDS011;11878;51.774;7.220;2023-02-19T16:08:43;5.67;;;3.47;;
23410;SDS011;11878;51.774;7.220;2023-02-19T16:11:51;8.27;;;4.90;;
23410;SDS011;11878;51.774;7.220;2023-02-19T16:14:54;7.20;;;3.93;;
23410;SDS011;11878;51.774;7.220;2023-02-19T16:17:59;5.40;;;2.97;;
23410;SDS011;11878;51.774;7.220;2023-02-19T16:21:06;6.70;;;2.97;;
23410;SDS011;11878;51.774;7.220;2023-02-19T16:24:17;5.37;;;2.70;;
23410;SDS011;11878;51.774;7.220;2023-02-19T16:30:37;7.47;;;3.70;;
23410;SDS011;11878;51.774;7.220;2023-02-19T16:33:45;8.57;;;3.53;;
23410;SDS011;11878;51.774;7.220;2023-02-19T16:36:49;5.50;;;3.10;;
23410;SDS011;11878;51.774;7.220;2023-02-19T16:46:18;5.40;;;2.93;;
23410;SDS011;11878;51.774;7.220;2023-02-19T16:49:21;6.53;;;2.53;;
23410;SDS011;11878;51.774;7.220;2023-02-19T16:52:25;3.83;;;1.87;;
23410;SDS011;11878;51.774;7.220;2023-02-19T16:55:45;3.37;;;2.03;;
23410;SDS011;11878;51.774;7.220;2023-02-19T16:58:50;5.50;;;1.70;;
23410;SDS011;11878;51.774;7.220;2023-02-19T17:01:52;3.83;;;1.50;;
23410;SDS011;11878;51.774;7.220;2023-02-19T17:04:54;3.60;;;2.00;;
23410;SDS011;11878;51.774;7.220;2023-02-19T17:07:56;6.73;;;1.77;;
23410;SDS011;11878;51.774;7.220;2023-02-19T17:11:01;4.37;;;2.10;;
23410;SDS011;11878;51.774;7.220;2023-02-19T17:14:10;5.80;;;2.50;;
23410;SDS011;11878;51.774;7.220;2023-02-19T17:17:12;3.50;;;1.80;;
23410;SDS011;11878;51.774;7.220;2023-02-19T17:23:16;5.50;;;2.13;;
23410;SDS011;11878;51.774;7.220;2023-02-19T17:26:19;3.80;;;2.13;;
23410;SDS011;11878;51.774;7.220;2023-02-19T17:29:23;4.53;;;2.30;;
23410;SDS011;11878;51.774;7.220;2023-02-19T17:32:26;6.00;;;2.80;;
23410;SDS011;11878;51.774;7.220;2023-02-19T17:35:31;2.97;;;1.63;;
23410;SDS011;11878;51.774;7.220;2023-02-19T17:38:33;4.90;;;2.80;;
23410;SDS011;11878;51.774;7.220;2023-02-19T17:41:35;4.90;;;3.07;;
23410;SDS011;11878;51.774;7.220;2023-02-19T17:44:40;5.57;;;3.00;;
23410;SDS011;11878;51.774;7.220;2023-02-19T17:47:42;4.87;;;2.60;;
23410;SDS011;11878;51.774;7.220;2023-02-19T17:50:45;2.30;;;1.57;;
23410;SDS011;11878;51.774;7.220;2023-02-19T17:53:49;6.60;;;3.90;;
23410;SDS011;11878;51.774;7.220;2023-02-19T17:56:55;4.80;;;2.43;;
23410;SDS011;11878;51.774;7.220;2023-02-19T18:00:02;6.47;;;3.40;;
23410;SDS011;11878;51.774;7.220;2023-02-19T18:03:12;10.40;;;3.33;;
23410;SDS011;11878;51.774;7.220;2023-02-19T18:06:18;5.43;;;2.43;;
23410;SDS011;11878;51.774;7.220;2023-02-19T18:09:28;7.70;;;3.60;;
23410;SDS011;11878;51.774;7.220;2023-02-19T18:12:30;3.70;;;2.37;;
23410;SDS011;11878;51.774;7.220;2023-02-19T18:15:38;13.23;;;5.87;;
23410;SDS011;11878;51.774;7.220;2023-02-19T18:18:50;12.83;;;8.00;;
23410;SDS011;11878;51.774;7.220;2023-02-19T18:22:22;8.23;;;2.50;;
23410;SDS011;11878;51.774;7.220;2023-02-19T18:25:32;6.70;;;2.77;;
23410;SDS011;11878;51.774;7.220;2023-02-19T18:28:34;6.23;;;3.00;;
23410;SDS011;11878;51.774;7.220;2023-02-19T18:31:38;3.73;;;2.17;;
23410;SDS011;11878;51.774;7.220;2023-02-19T18:34:46;6.00;;;2.47;;
23410;SDS011;11878;51.774;7.220;2023-02-19T18:37:53;7.20;;;4.10;;
23410;SDS011;11878;51.774;7.220;2023-02-19T18:40:58;9.43;;;3.13;;
23410;SDS011;11878;51.774;7.220;2023-02-19T18:44:00;7.07;;;3.00;;
23410;SDS011;11878;51.774;7.220;2023-02-19T18:47:05;16.33;;;5.67;;
23410;SDS011;11878;51.774;7.220;2023-02-19T18:50:10;6.70;;;3.17;;
23410;SDS011;11878;51.774;7.220;2023-02-19T18:53:18;6.03;;;2.80;;
23410;SDS011;11878;51.774;7.220;2023-02-19T18:56:24;7.87;;;3.63;;
23410;SDS011;11878;51.774;7.220;2023-02-19T18:59:31;7.00;;;2.50;;
23410;SDS011;11878;51.774;7.220;2023-02-19T19:02:35;4.33;;;2.70;;
23410;SDS011;11878;51.774;7.220;2023-02-19T19:05:56;4.27;;;2.20;;
23410;SDS011;11878;51.774;7.220;2023-02-19T19:09:03;5.40;;;2.87;;
23410;SDS011;11878;51.774;7.220;2023-02-19T19:12:16;6.87;;;3.53;;
23410;SDS011;11878;51.774;7.220;2023-02-19T19:15:21;3.70;;;2.37;;
23410;SDS011;11878;51.774;7.220;2023-02-19T19:18:26;4.33;;;2.27;;
23410;SDS011;11878;51.774;7.220;2023-02-19T19:21:32;5.10;;;2.50;;
23410;SDS011;11878;51.774;7.220;2023-02-19T19:24:35;4.83;;;2.23;;
23410;SDS011;11878;51.774;7.220;2023-02-19T19:27:40;4.93;;;2.20;;
23410;SDS011;11878;51.774;7.220;2023-02-19T19:30:53;5.00;;;2.50;;
23410;SDS011;11878;51.774;7.220;2023-02-19T19:33:58;8.23;;;3.30;;
23410;SDS011;11878;51.774;7.220;2023-02-19T19:37:06;4.17;;;2.20;;
23410;SDS011;11878;51.774;7.220;2023-02-19T19:40:11;4.53;;;1.70;;
23410;SDS011;11878;51.774;7.220;2023-02-19T19:43:24;3.30;;;1.80;;
23410;SDS011;11878;51.774;7.220;2023-02-19T19:46:33;4.43;;;2.87;;
23410;SDS011;11878;51.774;7.220;2023-02-19T19:49:44;10.30;;;5.13;;
23410;SDS011;11878;51.774;7.220;2023-02-19T19:53:10;11.57;;;2.23;;
23410;SDS011;11878;51.774;7.220;2023-02-19T19:56:15;5.17;;;2.47;;
23410;SDS011;11878;51.774;7.220;2023-02-19T19:59:18;3.33;;;2.07;;
23410;SDS011;11878;51.774;7.220;2023-02-19T20:02:20;4.17;;;2.70;;
23410;SDS011;11878;51.774;7.220;2023-02-19T20:05:28;6.30;;;2.30;;
23410;SDS011;11878;51.774;7.220;2023-02-19T20:08:33;5.87;;;3.87;;
23410;SDS011;11878;51.774;7.220;2023-02-19T20:11:41;7.77;;;3.17;;
23410;SDS011;11878;51.774;7.220;2023-02-19T20:14:51;5.40;;;2.70;;
23410;SDS011;11878;51.774;7.220;2023-02-19T20:17:53;3.83;;;2.50;;
23410;SDS011;11878;51.774;7.220;2023-02-19T20:21:03;4.90;;;2.53;;
23410;SDS011;11878;51.774;7.220;2023-02-19T20:24:08;7.50;;;3.03;;
23410;SDS011;11878;51.774;7.220;2023-02-19T20:27:13;5.33;;;3.40;;
23410;SDS011;11878;51.774;7.220;2023-02-19T20:30:17;6.73;;;3.50;;